sensor_id;sensor_type;location;lat;lon;timestamp;P1;durP1;ratioP1;P2;durP2;ratioP2
9729;SDS011;4904;49.152;11.004;2023-07-20T00:01:57;6.10;;;3.78;;
9729;SDS011;4904;49.152;11.004;2023-07-20T00:04:24;5.95;;;3.22;;
9729;SDS011;4904;49.152;11.004;2023-07-20T00:06:52;5.97;;;3.80;;
9729;SDS011;4904;49.152;11.004;2023-07-20T00:09:20;6.00;;;3.35;;
9729;SDS011;4904;49.152;11.004;2023-07-20T00:11:48;6.65;;;3.70;;
9729;SDS011;4904;49.152;11.004;2023-07-20T00:14:16;6.80;;;3.30;;
9729;SDS011;4904;49.152;11.004;2023-07-20T00:16:45;10.63;;;3.45;;
9729;SDS011;4904;49.152;11.004;2023-07-20T00:19:14;5.07;;;3.25;;
9729;SDS011;4904;49.152;11.004;2023-07-20T00:21:42;11.40;;;3.80;;
9729;SDS011;4904;49.152;11.004;2023-07-20T00:24:09;9.70;;;3.47;;
9729;SDS011;4904;49.152;11.004;2023-07-20T00:26:36;6.65;;;3.15;;
9729;SDS011;4904;49.152;11.004;2023-07-20T00:29:04;8.10;;;3.85;;
9729;SDS011;4904;49.152;11.004;2023-07-20T00:31:32;9.30;;;3.22;;
9729;SDS011;4904;49.152;11.004;2023-07-20T00:34:01;10.40;;;3.83;;
9729;SDS011;4904;49.152;11.004;2023-07-20T00:36:28;5.85;;;3.67;;
9729;SDS011;4904;49.152;11.004;2023-07-20T00:38:55;5.22;;;3.63;;
9729;SDS011;4904;49.152;11.004;2023-07-20T00:41:22;7.47;;;3.30;;
9729;SDS011;4904;49.152;11.004;2023-07-20T00:43:50;7.85;;;3.45;;
9729;SDS011;4904;49.152;11.004;2023-07-20T00:46:16;7.82;;;3.45;;
9729;SDS011;4904;49.152;11.004;2023-07-20T00:48:44;6.60;;;3.40;;
9729;SDS011;4904;49.152;11.004;2023-07-20T00:51:12;5.75;;;3.40;;
9729;SDS011;4904;49.152;11.004;2023-07-20T00:53:39;6.80;;;3.80;;
9729;SDS011;4904;49.152;11.004;2023-07-20T00:56:07;3.83;;;3.40;;
9729;SDS011;4904;49.152;11.004;2023-07-20T00:58:34;5.80;;;3.65;;
9729;SDS011;4904;49.152;11.004;2023-07-20T01:01:02;6.28;;;3.10;;
9729;SDS011;4904;49.152;11.004;2023-07-20T01:03:29;5.78;;;3.15;;
9729;SDS011;4904;49.152;11.004;2023-07-20T01:05:59;6.35;;;3.50;;
9729;SDS011;4904;49.152;11.004;2023-07-20T01:08:38;4.95;;;3.55;;
9729;SDS011;4904;49.152;11.004;2023-07-20T01:11:10;3.85;;;3.45;;
9729;SDS011;4904;49.152;11.004;2023-07-20T01:13:43;5.32;;;3.78;;
9729;SDS011;4904;49.152;11.004;2023-07-20T01:16:10;6.63;;;4.03;;
9729;SDS011;4904;49.152;11.004;2023-07-20T01:18:37;3.70;;;3.17;;
9729;SDS011;4904;49.152;11.004;2023-07-20T01:21:06;3.85;;;3.13;;
9729;SDS011;4904;49.152;11.004;2023-07-20T01:23:45;7.22;;;3.65;;
9729;SDS011;4904;49.152;11.004;2023-07-20T01:26:44;5.82;;;4.30;;
9729;SDS011;4904;49.152;11.004;2023-07-20T01:29:33;4.78;;;3.50;;
9729;SDS011;4904;49.152;11.004;2023-07-20T01:32:11;5.55;;;3.58;;
9729;SDS011;4904;49.152;11.004;2023-07-20T01:34:39;4.00;;;3.10;;
9729;SDS011;4904;49.152;11.004;2023-07-20T01:37:09;7.25;;;3.20;;
9729;SDS011;4904;49.152;11.004;2023-07-20T01:39:38;5.93;;;3.80;;
9729;SDS011;4904;49.152;11.004;2023-07-20T01:42:07;5.50;;;3.08;;
9729;SDS011;4904;49.152;11.004;2023-07-20T01:44:36;3.85;;;3.03;;
9729;SDS011;4904;49.152;11.004;2023-07-20T01:47:04;5.22;;;3.50;;
9729;SDS011;4904;49.152;11.004;2023-07-20T01:49:33;6.90;;;3.35;;
9729;SDS011;4904;49.152;11.004;2023-07-20T01:52:01;4.40;;;3.28;;
9729;SDS011;4904;49.152;11.004;2023-07-20T01:54:29;3.35;;;3.05;;
9729;SDS011;4904;49.152;11.004;2023-07-20T01:56:58;5.43;;;3.38;;
9729;SDS011;4904;49.152;11.004;2023-07-20T01:59:25;7.20;;;3.65;;
9729;SDS011;4904;49.152;11.004;2023-07-20T02:01:53;5.57;;;3.53;;
9729;SDS011;4904;49.152;11.004;2023-07-20T02:04:20;3.42;;;2.95;;
9729;SDS011;4904;49.152;11.004;2023-07-20T02:06:50;5.22;;;3.28;;
9729;SDS011;4904;49.152;11.004;2023-07-20T02:09:18;5.40;;;2.88;;
9729;SDS011;4904;49.152;11.004;2023-07-20T02:11:45;3.28;;;2.97;;
9729;SDS011;4904;49.152;11.004;2023-07-20T02:14:13;4.72;;;3.22;;
9729;SDS011;4904;49.152;11.004;2023-07-20T02:16:40;4.47;;;2.65;;
9729;SDS011;4904;49.152;11.004;2023-07-20T02:19:07;3.53;;;3.00;;
9729;SDS011;4904;49.152;11.004;2023-07-20T02:21:36;4.88;;;2.90;;
9729;SDS011;4904;49.152;11.004;2023-07-20T02:24:06;3.67;;;2.72;;
9729;SDS011;4904;49.152;11.004;2023-07-20T02:26:33;3.65;;;2.88;;
9729;SDS011;4904;49.152;11.004;2023-07-20T02:29:00;4.40;;;2.78;;
9729;SDS011;4904;49.152;11.004;2023-07-20T02:31:29;4.93;;;2.97;;
9729;SDS011;4904;49.152;11.004;2023-07-20T02:33:56;4.03;;;2.95;;
9729;SDS011;4904;49.152;11.004;2023-07-20T02:36:23;4.60;;;2.65;;
9729;SDS011;4904;49.152;11.004;2023-07-20T02:38:50;5.18;;;2.92;;
9729;SDS011;4904;49.152;11.004;2023-07-20T02:41:19;4.18;;;2.63;;
9729;SDS011;4904;49.152;11.004;2023-07-20T02:43:46;2.67;;;2.42;;
9729;SDS011;4904;49.152;11.004;2023-07-20T02:46:13;5.50;;;2.60;;
9729;SDS011;4904;49.152;11.004;2023-07-20T02:48:40;3.78;;;2.85;;
9729;SDS011;4904;49.152;11.004;2023-07-20T02:51:07;4.30;;;2.58;;
9729;SDS011;4904;49.152;11.004;2023-07-20T02:53:34;4.43;;;2.72;;
9729;SDS011;4904;49.152;11.004;2023-07-20T02:56:01;2.92;;;2.50;;
9729;SDS011;4904;49.152;11.004;2023-07-20T02:58:30;2.58;;;2.35;;
9729;SDS011;4904;49.152;11.004;2023-07-20T03:00:57;3.80;;;2.55;;
9729;SDS011;4904;49.152;11.004;2023-07-20T03:03:24;3.22;;;2.80;;
9729;SDS011;4904;49.152;11.004;2023-07-20T03:05:51;4.90;;;2.67;;
9729;SDS011;4904;49.152;11.004;2023-07-20T03:08:19;2.70;;;2.50;;
9729;SDS011;4904;49.152;11.004;2023-07-20T03:10:46;2.90;;;2.45;;
9729;SDS011;4904;49.152;11.004;2023-07-20T03:13:14;3.53;;;2.40;;
9729;SDS011;4904;49.152;11.004;2023-07-20T03:15:42;3.55;;;2.60;;
9729;SDS011;4904;49.152;11.004;2023-07-20T03:18:09;4.05;;;2.20;;
9729;SDS011;4904;49.152;11.004;2023-07-20T03:20:36;3.45;;;2.28;;
9729;SDS011;4904;49.152;11.004;2023-07-20T03:23:05;5.22;;;2.40;;
9729;SDS011;4904;49.152;11.004;2023-07-20T03:25:32;4.10;;;2.47;;
9729;SDS011;4904;49.152;11.004;2023-07-20T03:27:58;2.83;;;2.45;;
9729;SDS011;4904;49.152;11.004;2023-07-20T03:30:25;3.88;;;2.50;;
9729;SDS011;4904;49.152;11.004;2023-07-20T03:32:53;4.28;;;2.40;;
9729;SDS011;4904;49.152;11.004;2023-07-20T03:35:21;6.25;;;2.58;;
9729;SDS011;4904;49.152;11.004;2023-07-20T03:37:48;4.57;;;2.67;;
9729;SDS011;4904;49.152;11.004;2023-07-20T03:40:15;5.57;;;2.40;;
9729;SDS011;4904;49.152;11.004;2023-07-20T03:42:42;6.47;;;2.63;;
9729;SDS011;4904;49.152;11.004;2023-07-20T03:45:09;3.33;;;2.25;;
9729;SDS011;4904;49.152;11.004;2023-07-20T03:47:37;3.75;;;2.40;;
9729;SDS011;4904;49.152;11.004;2023-07-20T03:50:06;3.03;;;2.67;;
9729;SDS011;4904;49.152;11.004;2023-07-20T03:52:35;5.20;;;2.50;;
9729;SDS011;4904;49.152;11.004;2023-07-20T03:55:01;5.18;;;2.53;;
9729;SDS011;4904;49.152;11.004;2023-07-20T03:57:29;3.42;;;2.47;;
9729;SDS011;4904;49.152;11.004;2023-07-20T03:59:57;4.05;;;2.20;;
9729;SDS011;4904;49.152;11.004;2023-07-20T04:02:24;4.10;;;2.47;;
9729;SDS011;4904;49.152;11.004;2023-07-20T04:04:51;3.97;;;2.72;;
9729;SDS011;4904;49.152;11.004;2023-07-20T04:07:20;5.47;;;2.30;;
9729;SDS011;4904;49.152;11.004;2023-07-20T04:09:47;6.32;;;3.08;;
9729;SDS011;4904;49.152;11.004;2023-07-20T04:12:14;5.18;;;2.47;;
9729;SDS011;4904;49.152;11.004;2023-07-20T04:14:41;4.72;;;2.67;;
9729;SDS011;4904;49.152;11.004;2023-07-20T04:17:08;6.70;;;2.53;;
9729;SDS011;4904;49.152;11.004;2023-07-20T04:19:38;2.80;;;2.60;;
9729;SDS011;4904;49.152;11.004;2023-07-20T04:22:05;4.53;;;3.00;;
9729;SDS011;4904;49.152;11.004;2023-07-20T04:24:33;4.68;;;2.70;;
9729;SDS011;4904;49.152;11.004;2023-07-20T04:27:01;5.45;;;2.50;;
9729;SDS011;4904;49.152;11.004;2023-07-20T04:29:28;2.85;;;2.40;;
9729;SDS011;4904;49.152;11.004;2023-07-20T04:31:55;5.30;;;2.70;;
9729;SDS011;4904;49.152;11.004;2023-07-20T04:34:22;3.40;;;2.63;;
9729;SDS011;4904;49.152;11.004;2023-07-20T04:36:49;2.70;;;2.50;;
9729;SDS011;4904;49.152;11.004;2023-07-20T04:39:16;4.10;;;2.53;;
9729;SDS011;4904;49.152;11.004;2023-07-20T04:41:45;7.00;;;2.88;;
9729;SDS011;4904;49.152;11.004;2023-07-20T04:44:12;4.18;;;2.45;;
9729;SDS011;4904;49.152;11.004;2023-07-20T04:46:40;4.38;;;2.38;;
9729;SDS011;4904;49.152;11.004;2023-07-20T04:49:07;3.45;;;2.47;;
9729;SDS011;4904;49.152;11.004;2023-07-20T04:51:34;3.63;;;2.92;;
9729;SDS011;4904;49.152;11.004;2023-07-20T04:54:01;2.83;;;2.63;;
9729;SDS011;4904;49.152;11.004;2023-07-20T04:56:29;4.80;;;2.72;;
9729;SDS011;4904;49.152;11.004;2023-07-20T04:58:57;3.10;;;2.63;;
9729;SDS011;4904;49.152;11.004;2023-07-20T05:01:24;3.50;;;2.70;;
9729;SDS011;4904;49.152;11.004;2023-07-20T05:03:51;3.40;;;2.78;;
9729;SDS011;4904;49.152;11.004;2023-07-20T05:06:18;5.15;;;2.63;;
9729;SDS011;4904;49.152;11.004;2023-07-20T05:08:46;5.00;;;2.88;;
9729;SDS011;4904;49.152;11.004;2023-07-20T05:11:13;3.20;;;2.40;;
9729;SDS011;4904;49.152;11.004;2023-07-20T05:13:40;4.63;;;2.60;;
9729;SDS011;4904;49.152;11.004;2023-07-20T05:16:08;3.40;;;2.67;;
9729;SDS011;4904;49.152;11.004;2023-07-20T05:18:35;4.53;;;2.42;;
9729;SDS011;4904;49.152;11.004;2023-07-20T05:21:02;3.08;;;2.78;;
9729;SDS011;4904;49.152;11.004;2023-07-20T05:23:29;5.35;;;2.83;;
9729;SDS011;4904;49.152;11.004;2023-07-20T05:25:56;3.95;;;2.58;;
9729;SDS011;4904;49.152;11.004;2023-07-20T05:28:24;5.35;;;2.70;;
9729;SDS011;4904;49.152;11.004;2023-07-20T05:30:52;2.92;;;2.25;;
9729;SDS011;4904;49.152;11.004;2023-07-20T05:33:21;5.18;;;2.78;;
9729;SDS011;4904;49.152;11.004;2023-07-20T05:35:48;6.18;;;2.80;;
9729;SDS011;4904;49.152;11.004;2023-07-20T05:38:15;4.63;;;2.85;;
9729;SDS011;4904;49.152;11.004;2023-07-20T05:40:43;4.97;;;2.83;;
9729;SDS011;4904;49.152;11.004;2023-07-20T05:43:12;3.30;;;2.70;;
9729;SDS011;4904;49.152;11.004;2023-07-20T05:45:41;5.82;;;2.67;;
9729;SDS011;4904;49.152;11.004;2023-07-20T05:48:08;3.85;;;2.92;;
9729;SDS011;4904;49.152;11.004;2023-07-20T05:50:37;3.72;;;2.60;;
9729;SDS011;4904;49.152;11.004;2023-07-20T05:53:04;6.95;;;2.95;;
9729;SDS011;4904;49.152;11.004;2023-07-20T05:55:31;2.85;;;2.55;;
9729;SDS011;4904;49.152;11.004;2023-07-20T05:57:58;3.35;;;2.63;;
9729;SDS011;4904;49.152;11.004;2023-07-20T06:00:25;3.35;;;2.65;;
9729;SDS011;4904;49.152;11.004;2023-07-20T06:02:52;3.60;;;2.90;;
9729;SDS011;4904;49.152;11.004;2023-07-20T06:05:21;5.45;;;2.90;;
9729;SDS011;4904;49.152;11.004;2023-07-20T06:07:50;6.15;;;3.13;;
9729;SDS011;4904;49.152;11.004;2023-07-20T06:10:17;5.80;;;2.85;;
9729;SDS011;4904;49.152;11.004;2023-07-20T06:12:44;4.13;;;2.60;;
9729;SDS011;4904;49.152;11.004;2023-07-20T06:17:55;5.35;;;2.80;;
9729;SDS011;4904;49.152;11.004;2023-07-20T06:20:23;4.85;;;2.80;;
9729;SDS011;4904;49.152;11.004;2023-07-20T06:22:51;3.20;;;2.55;;
9729;SDS011;4904;49.152;11.004;2023-07-20T06:25:18;10.60;;;3.00;;
9729;SDS011;4904;49.152;11.004;2023-07-20T06:27:46;4.60;;;2.80;;
9729;SDS011;4904;49.152;11.004;2023-07-20T06:30:16;3.67;;;3.03;;
9729;SDS011;4904;49.152;11.004;2023-07-20T06:32:44;4.72;;;3.00;;
9729;SDS011;4904;49.152;11.004;2023-07-20T06:35:12;4.45;;;2.85;;
9729;SDS011;4904;49.152;11.004;2023-07-20T06:37:39;3.35;;;2.63;;
9729;SDS011;4904;49.152;11.004;2023-07-20T06:40:08;4.38;;;2.53;;
9729;SDS011;4904;49.152;11.004;2023-07-20T06:42:36;4.55;;;3.10;;
9729;SDS011;4904;49.152;11.004;2023-07-20T06:45:03;6.57;;;3.55;;
9729;SDS011;4904;49.152;11.004;2023-07-20T06:47:31;4.40;;;2.47;;
9729;SDS011;4904;49.152;11.004;2023-07-20T06:49:58;6.30;;;3.22;;
9729;SDS011;4904;49.152;11.004;2023-07-20T06:52:25;6.18;;;3.10;;
9729;SDS011;4904;49.152;11.004;2023-07-20T06:54:52;6.50;;;3.13;;
9729;SDS011;4904;49.152;11.004;2023-07-20T06:57:20;3.78;;;2.97;;
9729;SDS011;4904;49.152;11.004;2023-07-20T06:59:47;6.85;;;2.92;;
9729;SDS011;4904;49.152;11.004;2023-07-20T07:02:14;4.75;;;2.90;;
9729;SDS011;4904;49.152;11.004;2023-07-20T07:04:41;3.53;;;2.75;;
9729;SDS011;4904;49.152;11.004;2023-07-20T07:07:09;5.95;;;2.85;;
9729;SDS011;4904;49.152;11.004;2023-07-20T07:09:36;3.70;;;3.08;;
9729;SDS011;4904;49.152;11.004;2023-07-20T07:12:03;4.93;;;3.00;;
9729;SDS011;4904;49.152;11.004;2023-07-20T07:14:33;4.25;;;3.20;;
9729;SDS011;4904;49.152;11.004;2023-07-20T07:17:00;4.63;;;2.97;;
9729;SDS011;4904;49.152;11.004;2023-07-20T07:19:27;5.70;;;3.03;;
9729;SDS011;4904;49.152;11.004;2023-07-20T07:21:54;3.88;;;3.08;;
9729;SDS011;4904;49.152;11.004;2023-07-20T07:24:22;5.18;;;2.85;;
9729;SDS011;4904;49.152;11.004;2023-07-20T07:26:49;4.90;;;2.78;;
9729;SDS011;4904;49.152;11.004;2023-07-20T07:29:16;4.35;;;2.67;;
9729;SDS011;4904;49.152;11.004;2023-07-20T07:31:44;3.60;;;3.03;;
9729;SDS011;4904;49.152;11.004;2023-07-20T07:34:11;5.30;;;2.90;;
9729;SDS011;4904;49.152;11.004;2023-07-20T07:36:38;3.67;;;2.67;;
9729;SDS011;4904;49.152;11.004;2023-07-20T07:39:05;5.22;;;2.70;;
9729;SDS011;4904;49.152;11.004;2023-07-20T07:41:32;2.90;;;2.60;;
9729;SDS011;4904;49.152;11.004;2023-07-20T07:43:59;4.80;;;2.97;;
9729;SDS011;4904;49.152;11.004;2023-07-20T07:46:26;3.22;;;2.55;;
9729;SDS011;4904;49.152;11.004;2023-07-20T07:48:55;4.03;;;2.97;;
9729;SDS011;4904;49.152;11.004;2023-07-20T07:51:21;4.32;;;2.80;;
9729;SDS011;4904;49.152;11.004;2023-07-20T07:53:48;3.63;;;2.58;;
9729;SDS011;4904;49.152;11.004;2023-07-20T07:56:15;6.40;;;3.05;;
9729;SDS011;4904;49.152;11.004;2023-07-20T07:58:42;6.30;;;3.03;;
9729;SDS011;4904;49.152;11.004;2023-07-20T08:01:09;4.97;;;2.70;;
9729;SDS011;4904;49.152;11.004;2023-07-20T08:03:36;3.58;;;2.45;;
9729;SDS011;4904;49.152;11.004;2023-07-20T08:06:04;3.35;;;2.20;;
9729;SDS011;4904;49.152;11.004;2023-07-20T08:08:31;5.68;;;2.80;;
9729;SDS011;4904;49.152;11.004;2023-07-20T08:10:59;4.60;;;2.50;;
9729;SDS011;4904;49.152;11.004;2023-07-20T08:13:25;4.65;;;2.80;;
9729;SDS011;4904;49.152;11.004;2023-07-20T08:15:52;3.72;;;2.72;;
9729;SDS011;4904;49.152;11.004;2023-07-20T08:18:19;5.00;;;2.65;;
9729;SDS011;4904;49.152;11.004;2023-07-20T08:20:46;5.35;;;2.50;;
9729;SDS011;4904;49.152;11.004;2023-07-20T08:23:15;3.95;;;2.40;;
9729;SDS011;4904;49.152;11.004;2023-07-20T08:25:42;5.05;;;2.75;;
9729;SDS011;4904;49.152;11.004;2023-07-20T08:28:10;3.22;;;2.63;;
9729;SDS011;4904;49.152;11.004;2023-07-20T08:30:40;3.63;;;2.67;;
9729;SDS011;4904;49.152;11.004;2023-07-20T08:33:08;5.72;;;2.70;;
9729;SDS011;4904;49.152;11.004;2023-07-20T08:35:35;2.72;;;2.35;;
9729;SDS011;4904;49.152;11.004;2023-07-20T08:38:02;4.75;;;2.22;;
9729;SDS011;4904;49.152;11.004;2023-07-20T08:40:31;3.38;;;2.38;;
9729;SDS011;4904;49.152;11.004;2023-07-20T08:42:59;5.10;;;2.92;;
9729;SDS011;4904;49.152;11.004;2023-07-20T08:45:26;2.85;;;2.40;;
9729;SDS011;4904;49.152;11.004;2023-07-20T08:47:55;5.53;;;3.10;;
9729;SDS011;4904;49.152;11.004;2023-07-20T08:50:25;6.10;;;2.58;;
9729;SDS011;4904;49.152;11.004;2023-07-20T08:52:54;5.05;;;2.60;;
9729;SDS011;4904;49.152;11.004;2023-07-20T08:55:23;5.38;;;2.80;;
9729;SDS011;4904;49.152;11.004;2023-07-20T08:57:52;3.53;;;2.42;;
9729;SDS011;4904;49.152;11.004;2023-07-20T09:00:21;4.05;;;2.63;;
9729;SDS011;4904;49.152;11.004;2023-07-20T09:02:50;2.92;;;2.30;;
9729;SDS011;4904;49.152;11.004;2023-07-20T09:05:17;4.55;;;2.65;;
9729;SDS011;4904;49.152;11.004;2023-07-20T09:07:45;2.88;;;2.50;;
9729;SDS011;4904;49.152;11.004;2023-07-20T09:10:13;3.03;;;1.98;;
9729;SDS011;4904;49.152;11.004;2023-07-20T09:12:41;3.80;;;2.38;;
9729;SDS011;4904;49.152;11.004;2023-07-20T09:15:10;4.13;;;2.33;;
9729;SDS011;4904;49.152;11.004;2023-07-20T09:17:38;7.07;;;2.10;;
9729;SDS011;4904;49.152;11.004;2023-07-20T09:20:06;3.22;;;2.20;;
9729;SDS011;4904;49.152;11.004;2023-07-20T09:22:36;2.30;;;2.10;;
9729;SDS011;4904;49.152;11.004;2023-07-20T09:25:05;2.38;;;2.10;;
9729;SDS011;4904;49.152;11.004;2023-07-20T09:27:37;3.75;;;2.15;;
9729;SDS011;4904;49.152;11.004;2023-07-20T09:30:05;3.83;;;2.17;;
9729;SDS011;4904;49.152;11.004;2023-07-20T09:32:39;2.38;;;2.05;;
9729;SDS011;4904;49.152;11.004;2023-07-20T09:35:12;3.50;;;2.10;;
9729;SDS011;4904;49.152;11.004;2023-07-20T09:37:45;9.52;;;3.28;;
9729;SDS011;4904;49.152;11.004;2023-07-20T09:40:17;2.10;;;2.00;;
9729;SDS011;4904;49.152;11.004;2023-07-20T09:42:45;2.25;;;2.05;;
9729;SDS011;4904;49.152;11.004;2023-07-20T09:45:12;4.22;;;1.88;;
9729;SDS011;4904;49.152;11.004;2023-07-20T09:47:40;3.03;;;1.92;;
9729;SDS011;4904;49.152;11.004;2023-07-20T09:50:07;3.88;;;2.17;;
9729;SDS011;4904;49.152;11.004;2023-07-20T09:52:40;4.95;;;2.05;;
9729;SDS011;4904;49.152;11.004;2023-07-20T09:55:09;4.53;;;2.17;;
9729;SDS011;4904;49.152;11.004;2023-07-20T09:57:37;4.20;;;2.10;;
9729;SDS011;4904;49.152;11.004;2023-07-20T10:00:05;3.95;;;2.20;;
9729;SDS011;4904;49.152;11.004;2023-07-20T10:02:43;2.00;;;1.80;;
9729;SDS011;4904;49.152;11.004;2023-07-20T10:05:12;2.17;;;2.03;;
9729;SDS011;4904;49.152;11.004;2023-07-20T10:07:43;2.30;;;2.10;;
9729;SDS011;4904;49.152;11.004;2023-07-20T10:10:11;3.15;;;2.17;;
9729;SDS011;4904;49.152;11.004;2023-07-20T10:12:42;2.97;;;2.10;;
9729;SDS011;4904;49.152;11.004;2023-07-20T10:15:11;2.58;;;1.83;;
9729;SDS011;4904;49.152;11.004;2023-07-20T10:17:47;3.60;;;1.90;;
9729;SDS011;4904;49.152;11.004;2023-07-20T10:20:22;4.35;;;2.10;;
9729;SDS011;4904;49.152;11.004;2023-07-20T10:22:51;3.95;;;2.10;;
9729;SDS011;4904;49.152;11.004;2023-07-20T10:25:20;3.08;;;2.00;;
9729;SDS011;4904;49.152;11.004;2023-07-20T10:27:49;4.60;;;1.77;;
9729;SDS011;4904;49.152;11.004;2023-07-20T10:30:18;2.83;;;1.90;;
9729;SDS011;4904;49.152;11.004;2023-07-20T10:32:48;2.25;;;2.05;;
9729;SDS011;4904;49.152;11.004;2023-07-20T10:35:17;1.92;;;1.70;;
9729;SDS011;4904;49.152;11.004;2023-07-20T10:37:46;2.75;;;1.80;;
9729;SDS011;4904;49.152;11.004;2023-07-20T10:40:25;1.67;;;1.40;;
9729;SDS011;4904;49.152;11.004;2023-07-20T10:43:00;4.13;;;2.00;;
9729;SDS011;4904;49.152;11.004;2023-07-20T10:45:33;3.47;;;1.90;;
9729;SDS011;4904;49.152;11.004;2023-07-20T10:48:06;1.77;;;1.42;;
9729;SDS011;4904;49.152;11.004;2023-07-20T10:50:40;2.60;;;1.80;;
9729;SDS011;4904;49.152;11.004;2023-07-20T10:53:11;2.40;;;2.00;;
9729;SDS011;4904;49.152;11.004;2023-07-20T10:55:43;2.15;;;1.70;;
9729;SDS011;4904;49.152;11.004;2023-07-20T10:58:15;2.28;;;1.73;;
9729;SDS011;4904;49.152;11.004;2023-07-20T11:00:54;2.05;;;1.85;;
9729;SDS011;4904;49.152;11.004;2023-07-20T11:03:28;2.45;;;1.92;;
9729;SDS011;4904;49.152;11.004;2023-07-20T11:05:57;3.95;;;2.00;;
9729;SDS011;4904;49.152;11.004;2023-07-20T11:08:39;3.25;;;1.70;;
9729;SDS011;4904;49.152;11.004;2023-07-20T11:11:23;2.83;;;1.80;;
9729;SDS011;4904;49.152;11.004;2023-07-20T11:13:55;2.13;;;1.70;;
9729;SDS011;4904;49.152;11.004;2023-07-20T11:16:36;2.00;;;1.90;;
9729;SDS011;4904;49.152;11.004;2023-07-20T11:19:13;2.83;;;1.90;;
9729;SDS011;4904;49.152;11.004;2023-07-20T11:21:43;3.90;;;1.80;;
9729;SDS011;4904;49.152;11.004;2023-07-20T11:24:11;2.25;;;1.73;;
9729;SDS011;4904;49.152;11.004;2023-07-20T11:26:45;3.47;;;1.88;;
9729;SDS011;4904;49.152;11.004;2023-07-20T11:29:15;5.63;;;1.85;;
9729;SDS011;4904;49.152;11.004;2023-07-20T11:31:43;1.95;;;1.50;;
9729;SDS011;4904;49.152;11.004;2023-07-20T11:34:13;2.05;;;1.55;;
9729;SDS011;4904;49.152;11.004;2023-07-20T11:36:42;2.85;;;1.88;;
9729;SDS011;4904;49.152;11.004;2023-07-20T11:39:10;1.88;;;1.67;;
9729;SDS011;4904;49.152;11.004;2023-07-20T11:41:43;2.22;;;1.77;;
9729;SDS011;4904;49.152;11.004;2023-07-20T11:44:12;2.78;;;1.90;;
9729;SDS011;4904;49.152;11.004;2023-07-20T11:46:40;2.05;;;1.77;;
9729;SDS011;4904;49.152;11.004;2023-07-20T11:49:09;3.35;;;1.50;;
9729;SDS011;4904;49.152;11.004;2023-07-20T11:51:39;2.05;;;1.85;;
9729;SDS011;4904;49.152;11.004;2023-07-20T11:54:07;2.25;;;2.05;;
9729;SDS011;4904;49.152;11.004;2023-07-20T11:56:35;1.80;;;1.70;;
9729;SDS011;4904;49.152;11.004;2023-07-20T11:59:03;2.45;;;1.92;;
9729;SDS011;4904;49.152;11.004;2023-07-20T12:01:34;3.75;;;1.85;;
9729;SDS011;4904;49.152;11.004;2023-07-20T12:04:02;1.95;;;1.63;;
9729;SDS011;4904;49.152;11.004;2023-07-20T12:06:32;4.10;;;1.60;;
9729;SDS011;4904;49.152;11.004;2023-07-20T12:09:00;3.85;;;2.03;;
9729;SDS011;4904;49.152;11.004;2023-07-20T12:11:32;3.35;;;1.85;;
9729;SDS011;4904;49.152;11.004;2023-07-20T12:14:00;4.28;;;1.65;;
9729;SDS011;4904;49.152;11.004;2023-07-20T12:16:28;1.90;;;1.67;;
9729;SDS011;4904;49.152;11.004;2023-07-20T12:19:00;1.70;;;1.60;;
9729;SDS011;4904;49.152;11.004;2023-07-20T12:21:28;2.90;;;1.80;;
9729;SDS011;4904;49.152;11.004;2023-07-20T12:23:56;5.15;;;1.88;;
9729;SDS011;4904;49.152;11.004;2023-07-20T12:26:26;1.92;;;1.60;;
9729;SDS011;4904;49.152;11.004;2023-07-20T12:28:56;2.97;;;1.83;;
9729;SDS011;4904;49.152;11.004;2023-07-20T12:31:23;1.80;;;1.70;;
9729;SDS011;4904;49.152;11.004;2023-07-20T12:33:51;2.47;;;1.92;;
9729;SDS011;4904;49.152;11.004;2023-07-20T12:36:20;2.25;;;1.90;;
9729;SDS011;4904;49.152;11.004;2023-07-20T12:38:48;3.17;;;2.17;;
9729;SDS011;4904;49.152;11.004;2023-07-20T12:41:15;1.90;;;1.70;;
9729;SDS011;4904;49.152;11.004;2023-07-20T12:43:48;2.40;;;1.95;;
9729;SDS011;4904;49.152;11.004;2023-07-20T12:46:16;2.67;;;1.90;;
9729;SDS011;4904;49.152;11.004;2023-07-20T12:48:43;5.95;;;1.90;;
9729;SDS011;4904;49.152;11.004;2023-07-20T12:51:11;3.83;;;1.75;;
9729;SDS011;4904;49.152;11.004;2023-07-20T12:53:39;2.63;;;1.83;;
9729;SDS011;4904;49.152;11.004;2023-07-20T12:56:08;2.03;;;1.80;;
9729;SDS011;4904;49.152;11.004;2023-07-20T12:58:36;1.90;;;1.80;;
9729;SDS011;4904;49.152;11.004;2023-07-20T13:01:05;2.67;;;2.08;;
9729;SDS011;4904;49.152;11.004;2023-07-20T13:03:32;4.40;;;1.90;;
9729;SDS011;4904;49.152;11.004;2023-07-20T13:05:59;1.88;;;1.75;;
9729;SDS011;4904;49.152;11.004;2023-07-20T13:08:26;2.10;;;1.90;;
9729;SDS011;4904;49.152;11.004;2023-07-20T13:10:53;2.00;;;1.80;;
9729;SDS011;4904;49.152;11.004;2023-07-20T13:13:20;2.05;;;1.80;;
9729;SDS011;4904;49.152;11.004;2023-07-20T13:15:47;2.45;;;2.05;;
9729;SDS011;4904;49.152;11.004;2023-07-20T13:18:15;3.17;;;1.80;;
9729;SDS011;4904;49.152;11.004;2023-07-20T13:20:43;3.53;;;1.83;;
9729;SDS011;4904;49.152;11.004;2023-07-20T13:23:10;3.60;;;1.90;;
9729;SDS011;4904;49.152;11.004;2023-07-20T13:25:38;3.60;;;2.00;;
9729;SDS011;4904;49.152;11.004;2023-07-20T13:28:05;7.43;;;2.40;;
9729;SDS011;4904;49.152;11.004;2023-07-20T13:30:33;2.75;;;1.92;;
9729;SDS011;4904;49.152;11.004;2023-07-20T13:33:00;3.65;;;1.67;;
9729;SDS011;4904;49.152;11.004;2023-07-20T13:35:29;3.70;;;2.10;;
9729;SDS011;4904;49.152;11.004;2023-07-20T13:37:56;2.35;;;1.65;;
9729;SDS011;4904;49.152;11.004;2023-07-20T13:40:23;3.88;;;1.80;;
9729;SDS011;4904;49.152;11.004;2023-07-20T13:42:51;4.00;;;1.88;;
9729;SDS011;4904;49.152;11.004;2023-07-20T13:45:18;4.55;;;1.67;;
9729;SDS011;4904;49.152;11.004;2023-07-20T13:47:45;2.40;;;2.00;;
9729;SDS011;4904;49.152;11.004;2023-07-20T13:50:13;4.78;;;1.90;;
9729;SDS011;4904;49.152;11.004;2023-07-20T13:52:41;1.88;;;1.65;;
9729;SDS011;4904;49.152;11.004;2023-07-20T13:55:08;4.72;;;1.80;;
9729;SDS011;4904;49.152;11.004;2023-07-20T13:57:35;2.28;;;2.00;;
9729;SDS011;4904;49.152;11.004;2023-07-20T14:00:02;2.08;;;1.88;;
9729;SDS011;4904;49.152;11.004;2023-07-20T14:02:30;1.80;;;1.63;;
9729;SDS011;4904;49.152;11.004;2023-07-20T14:04:58;2.90;;;1.90;;
9729;SDS011;4904;49.152;11.004;2023-07-20T14:07:25;2.67;;;1.90;;
9729;SDS011;4904;49.152;11.004;2023-07-20T14:09:53;3.15;;;1.95;;
9729;SDS011;4904;49.152;11.004;2023-07-20T14:12:20;2.17;;;1.58;;
9729;SDS011;4904;49.152;11.004;2023-07-20T14:14:48;3.40;;;1.92;;
9729;SDS011;4904;49.152;11.004;2023-07-20T14:17:15;1.90;;;1.80;;
9729;SDS011;4904;49.152;11.004;2023-07-20T14:19:43;1.90;;;1.80;;
9729;SDS011;4904;49.152;11.004;2023-07-20T14:22:11;4.22;;;1.90;;
9729;SDS011;4904;49.152;11.004;2023-07-20T14:24:38;2.17;;;1.75;;
9729;SDS011;4904;49.152;11.004;2023-07-20T14:27:07;1.73;;;1.63;;
9729;SDS011;4904;49.152;11.004;2023-07-20T14:29:34;2.17;;;1.98;;
9729;SDS011;4904;49.152;11.004;2023-07-20T14:32:01;2.30;;;2.10;;
9729;SDS011;4904;49.152;11.004;2023-07-20T14:34:31;1.98;;;1.88;;
9729;SDS011;4904;49.152;11.004;2023-07-20T14:36:58;1.90;;;1.80;;
9729;SDS011;4904;49.152;11.004;2023-07-20T14:39:26;2.28;;;1.95;;
9729;SDS011;4904;49.152;11.004;2023-07-20T14:41:52;2.13;;;1.73;;
9729;SDS011;4904;49.152;11.004;2023-07-20T14:44:21;1.83;;;1.73;;
9729;SDS011;4904;49.152;11.004;2023-07-20T14:46:48;2.08;;;1.70;;
9729;SDS011;4904;49.152;11.004;2023-07-20T14:49:15;1.90;;;1.80;;
9729;SDS011;4904;49.152;11.004;2023-07-20T14:51:42;2.35;;;2.00;;
9729;SDS011;4904;49.152;11.004;2023-07-20T14:54:12;2.00;;;1.80;;
9729;SDS011;4904;49.152;11.004;2023-07-20T14:56:39;2.15;;;1.95;;
9729;SDS011;4904;49.152;11.004;2023-07-20T14:59:14;2.00;;;1.90;;
9729;SDS011;4904;49.152;11.004;2023-07-20T15:01:44;2.00;;;1.90;;
9729;SDS011;4904;49.152;11.004;2023-07-20T15:04:11;2.95;;;2.08;;
9729;SDS011;4904;49.152;11.004;2023-07-20T15:06:39;2.30;;;1.83;;
9729;SDS011;4904;49.152;11.004;2023-07-20T15:09:06;1.75;;;1.65;;
9729;SDS011;4904;49.152;11.004;2023-07-20T15:11:34;1.80;;;1.70;;